sensor_id;sensor_type;location;lat;lon;timestamp;P1;durP1;ratioP1;P2;durP2;ratioP2
6661;SDS011;3367;48.714;8.994;2022-11-13T00:00:36;9.50;;;5.43;;
6661;SDS011;3367;48.714;8.994;2022-11-13T00:03:03;4.23;;;2.43;;
6661;SDS011;3367;48.714;8.994;2022-11-13T00:05:30;3.37;;;2.63;;
6661;SDS011;3367;48.714;8.994;2022-11-13T00:07:56;6.03;;;3.07;;
6661;SDS011;3367;48.714;8.994;2022-11-13T00:10:23;3.43;;;2.90;;
6661;SDS011;3367;48.714;8.994;2022-11-13T00:12:50;7.47;;;4.73;;
6661;SDS011;3367;48.714;8.994;2022-11-13T00:15:18;5.03;;;3.40;;
6661;SDS011;3367;48.714;8.994;2022-11-13T00:17:46;4.87;;;3.10;;
6661;SDS011;3367;48.714;8.994;2022-11-13T00:20:12;7.13;;;3.53;;
6661;SDS011;3367;48.714;8.994;2022-11-13T00:22:39;5.87;;;2.90;;
6661;SDS011;3367;48.714;8.994;2022-11-13T00:25:06;12.63;;;3.30;;
6661;SDS011;3367;48.714;8.994;2022-11-13T00:27:33;2.40;;;2.20;;
6661;SDS011;3367;48.714;8.994;2022-11-13T00:30:00;8.67;;;3.50;;
6661;SDS011;3367;48.714;8.994;2022-11-13T00:32:27;7.80;;;3.13;;
6661;SDS011;3367;48.714;8.994;2022-11-13T00:34:55;6.53;;;2.53;;
6661;SDS011;3367;48.714;8.994;2022-11-13T00:37:22;3.70;;;2.27;;
6661;SDS011;3367;48.714;8.994;2022-11-13T00:39:48;4.73;;;2.73;;
6661;SDS011;3367;48.714;8.994;2022-11-13T00:42:15;5.27;;;2.77;;
6661;SDS011;3367;48.714;8.994;2022-11-13T00:44:42;4.83;;;2.60;;
6661;SDS011;3367;48.714;8.994;2022-11-13T00:47:08;3.63;;;2.50;;
6661;SDS011;3367;48.714;8.994;2022-11-13T00:49:35;4.97;;;3.17;;
6661;SDS011;3367;48.714;8.994;2022-11-13T00:52:03;11.87;;;4.70;;
6661;SDS011;3367;48.714;8.994;2022-11-13T00:54:30;3.97;;;2.47;;
6661;SDS011;3367;48.714;8.994;2022-11-13T00:56:56;3.17;;;2.93;;
6661;SDS011;3367;48.714;8.994;2022-11-13T00:59:23;4.73;;;2.63;;
6661;SDS011;3367;48.714;8.994;2022-11-13T01:01:50;9.27;;;3.10;;
6661;SDS011;3367;48.714;8.994;2022-11-13T01:04:17;6.20;;;2.30;;
6661;SDS011;3367;48.714;8.994;2022-11-13T01:06:43;4.03;;;2.67;;
6661;SDS011;3367;48.714;8.994;2022-11-13T01:09:12;4.33;;;2.70;;
6661;SDS011;3367;48.714;8.994;2022-11-13T01:11:38;3.83;;;2.23;;
6661;SDS011;3367;48.714;8.994;2022-11-13T01:14:06;3.67;;;2.00;;
6661;SDS011;3367;48.714;8.994;2022-11-13T01:16:34;3.10;;;2.57;;
6661;SDS011;3367;48.714;8.994;2022-11-13T01:19:00;4.40;;;2.87;;
6661;SDS011;3367;48.714;8.994;2022-11-13T01:21:27;7.60;;;2.23;;
6661;SDS011;3367;48.714;8.994;2022-11-13T01:23:54;6.40;;;3.07;;
6661;SDS011;3367;48.714;8.994;2022-11-13T01:26:23;2.47;;;2.07;;
6661;SDS011;3367;48.714;8.994;2022-11-13T01:28:51;2.40;;;2.20;;
6661;SDS011;3367;48.714;8.994;2022-11-13T01:31:20;2.87;;;1.93;;
6661;SDS011;3367;48.714;8.994;2022-11-13T01:33:48;3.47;;;2.70;;
6661;SDS011;3367;48.714;8.994;2022-11-13T01:36:15;6.00;;;2.43;;
6661;SDS011;3367;48.714;8.994;2022-11-13T01:38:44;4.97;;;2.00;;
6661;SDS011;3367;48.714;8.994;2022-11-13T01:41:12;5.70;;;2.60;;
6661;SDS011;3367;48.714;8.994;2022-11-13T01:43:44;11.43;;;2.80;;
6661;SDS011;3367;48.714;8.994;2022-11-13T01:46:21;4.30;;;2.20;;
6661;SDS011;3367;48.714;8.994;2022-11-13T01:48:55;4.90;;;3.40;;
6661;SDS011;3367;48.714;8.994;2022-11-13T01:51:27;4.60;;;2.10;;
6661;SDS011;3367;48.714;8.994;2022-11-13T01:53:57;2.97;;;2.37;;
6661;SDS011;3367;48.714;8.994;2022-11-13T01:56:25;6.47;;;3.10;;
6661;SDS011;3367;48.714;8.994;2022-11-13T01:58:56;4.20;;;2.07;;
6661;SDS011;3367;48.714;8.994;2022-11-13T02:01:27;13.90;;;2.27;;
6661;SDS011;3367;48.714;8.994;2022-11-13T02:03:53;3.00;;;1.93;;
6661;SDS011;3367;48.714;8.994;2022-11-13T02:06:20;3.80;;;2.00;;
6661;SDS011;3367;48.714;8.994;2022-11-13T02:08:48;4.60;;;3.03;;
6661;SDS011;3367;48.714;8.994;2022-11-13T02:11:15;3.07;;;2.07;;
6661;SDS011;3367;48.714;8.994;2022-11-13T02:13:43;2.70;;;2.50;;
6661;SDS011;3367;48.714;8.994;2022-11-13T02:16:11;5.70;;;2.30;;
6661;SDS011;3367;48.714;8.994;2022-11-13T02:18:40;5.73;;;2.40;;
6661;SDS011;3367;48.714;8.994;2022-11-13T02:21:10;2.30;;;1.60;;
6661;SDS011;3367;48.714;8.994;2022-11-13T02:23:45;1.90;;;1.50;;
6661;SDS011;3367;48.714;8.994;2022-11-13T02:26:19;2.30;;;2.10;;
6661;SDS011;3367;48.714;8.994;2022-11-13T02:28:48;2.00;;;1.90;;
6661;SDS011;3367;48.714;8.994;2022-11-13T02:31:15;1.83;;;1.67;;
6661;SDS011;3367;48.714;8.994;2022-11-13T02:33:42;3.00;;;1.73;;
6661;SDS011;3367;48.714;8.994;2022-11-13T02:36:09;3.33;;;1.63;;
6661;SDS011;3367;48.714;8.994;2022-11-13T02:38:37;5.37;;;2.20;;
6661;SDS011;3367;48.714;8.994;2022-11-13T02:41:06;2.30;;;1.80;;
6661;SDS011;3367;48.714;8.994;2022-11-13T02:43:34;4.53;;;2.27;;
6661;SDS011;3367;48.714;8.994;2022-11-13T02:46:00;3.37;;;2.47;;
6661;SDS011;3367;48.714;8.994;2022-11-13T02:48:27;3.13;;;1.87;;
6661;SDS011;3367;48.714;8.994;2022-11-13T02:50:54;1.67;;;1.57;;
6661;SDS011;3367;48.714;8.994;2022-11-13T02:53:21;4.50;;;2.33;;
6661;SDS011;3367;48.714;8.994;2022-11-13T02:55:47;7.33;;;2.73;;
6661;SDS011;3367;48.714;8.994;2022-11-13T02:58:14;4.37;;;2.50;;
6661;SDS011;3367;48.714;8.994;2022-11-13T03:00:42;2.10;;;1.90;;
6661;SDS011;3367;48.714;8.994;2022-11-13T03:03:09;2.60;;;1.73;;
6661;SDS011;3367;48.714;8.994;2022-11-13T03:05:36;2.57;;;2.37;;
6661;SDS011;3367;48.714;8.994;2022-11-13T03:08:02;0.90;;;0.90;;
6661;SDS011;3367;48.714;8.994;2022-11-13T03:10:30;2.17;;;1.57;;
6661;SDS011;3367;48.714;8.994;2022-11-13T03:12:57;1.40;;;1.30;;
6661;SDS011;3367;48.714;8.994;2022-11-13T03:15:24;3.00;;;2.13;;
6661;SDS011;3367;48.714;8.994;2022-11-13T03:17:52;2.50;;;1.57;;
6661;SDS011;3367;48.714;8.994;2022-11-13T03:20:19;2.10;;;1.67;;
6661;SDS011;3367;48.714;8.994;2022-11-13T03:22:46;3.33;;;1.50;;
6661;SDS011;3367;48.714;8.994;2022-11-13T03:25:12;9.77;;;2.03;;
6661;SDS011;3367;48.714;8.994;2022-11-13T03:27:39;1.47;;;1.37;;
6661;SDS011;3367;48.714;8.994;2022-11-13T03:30:06;2.43;;;2.23;;
6661;SDS011;3367;48.714;8.994;2022-11-13T03:32:34;2.30;;;1.90;;
6661;SDS011;3367;48.714;8.994;2022-11-13T03:35:02;2.70;;;1.70;;
6661;SDS011;3367;48.714;8.994;2022-11-13T03:37:29;1.50;;;1.40;;
6661;SDS011;3367;48.714;8.994;2022-11-13T03:39:56;3.17;;;1.60;;
6661;SDS011;3367;48.714;8.994;2022-11-13T03:42:23;3.53;;;2.03;;
6661;SDS011;3367;48.714;8.994;2022-11-13T03:44:49;1.93;;;1.73;;
6661;SDS011;3367;48.714;8.994;2022-11-13T03:47:16;7.60;;;1.77;;
6661;SDS011;3367;48.714;8.994;2022-11-13T03:49:43;2.33;;;1.33;;
6661;SDS011;3367;48.714;8.994;2022-11-13T03:52:11;3.43;;;1.60;;
6661;SDS011;3367;48.714;8.994;2022-11-13T03:54:37;2.50;;;1.77;;
6661;SDS011;3367;48.714;8.994;2022-11-13T03:57:04;2.13;;;1.70;;
6661;SDS011;3367;48.714;8.994;2022-11-13T03:59:31;2.73;;;1.87;;
6661;SDS011;3367;48.714;8.994;2022-11-13T04:01:58;1.70;;;1.27;;
6661;SDS011;3367;48.714;8.994;2022-11-13T04:04:24;2.40;;;1.77;;
6661;SDS011;3367;48.714;8.994;2022-11-13T04:06:51;3.30;;;1.90;;
6661;SDS011;3367;48.714;8.994;2022-11-13T04:09:19;4.07;;;2.43;;
6661;SDS011;3367;48.714;8.994;2022-11-13T04:11:46;2.80;;;1.57;;
6661;SDS011;3367;48.714;8.994;2022-11-13T04:14:12;1.77;;;1.43;;
6661;SDS011;3367;48.714;8.994;2022-11-13T04:16:39;2.20;;;1.37;;
6661;SDS011;3367;48.714;8.994;2022-11-13T04:19:06;3.60;;;2.20;;
6661;SDS011;3367;48.714;8.994;2022-11-13T04:21:32;2.00;;;1.37;;
6661;SDS011;3367;48.714;8.994;2022-11-13T04:23:59;2.40;;;1.90;;
6661;SDS011;3367;48.714;8.994;2022-11-13T04:26:27;2.13;;;1.30;;
6661;SDS011;3367;48.714;8.994;2022-11-13T04:28:54;1.63;;;1.53;;
6661;SDS011;3367;48.714;8.994;2022-11-13T04:31:21;3.23;;;1.63;;
6661;SDS011;3367;48.714;8.994;2022-11-13T04:33:47;1.97;;;1.87;;
6661;SDS011;3367;48.714;8.994;2022-11-13T04:36:14;2.30;;;2.10;;
6661;SDS011;3367;48.714;8.994;2022-11-13T04:38:41;5.60;;;1.27;;
6661;SDS011;3367;48.714;8.994;2022-11-13T04:41:08;1.03;;;1.03;;
6661;SDS011;3367;48.714;8.994;2022-11-13T04:43:56;1.90;;;1.73;;
6661;SDS011;3367;48.714;8.994;2022-11-13T04:46:23;1.23;;;1.13;;
6661;SDS011;3367;48.714;8.994;2022-11-13T04:48:50;5.97;;;2.30;;
6661;SDS011;3367;48.714;8.994;2022-11-13T04:51:16;3.33;;;2.60;;
6661;SDS011;3367;48.714;8.994;2022-11-13T04:53:43;1.50;;;1.10;;
6661;SDS011;3367;48.714;8.994;2022-11-13T04:56:10;6.10;;;1.50;;
6661;SDS011;3367;48.714;8.994;2022-11-13T04:58:36;3.07;;;2.40;;
6661;SDS011;3367;48.714;8.994;2022-11-13T05:01:04;4.07;;;2.00;;
6661;SDS011;3367;48.714;8.994;2022-11-13T05:03:31;4.20;;;1.97;;
6661;SDS011;3367;48.714;8.994;2022-11-13T05:06:01;2.00;;;1.80;;
6661;SDS011;3367;48.714;8.994;2022-11-13T05:08:29;3.80;;;1.60;;
6661;SDS011;3367;48.714;8.994;2022-11-13T05:10:56;5.63;;;1.77;;
6661;SDS011;3367;48.714;8.994;2022-11-13T05:13:23;3.43;;;1.80;;
6661;SDS011;3367;48.714;8.994;2022-11-13T05:15:50;2.00;;;1.27;;
6661;SDS011;3367;48.714;8.994;2022-11-13T05:18:18;1.73;;;1.50;;
6661;SDS011;3367;48.714;8.994;2022-11-13T05:20:49;4.83;;;2.57;;
6661;SDS011;3367;48.714;8.994;2022-11-13T05:23:16;3.67;;;1.60;;
6661;SDS011;3367;48.714;8.994;2022-11-13T05:25:42;2.17;;;1.77;;
6661;SDS011;3367;48.714;8.994;2022-11-13T05:28:09;3.07;;;1.70;;
6661;SDS011;3367;48.714;8.994;2022-11-13T05:30:36;3.83;;;1.70;;
6661;SDS011;3367;48.714;8.994;2022-11-13T05:33:03;2.43;;;1.47;;
6661;SDS011;3367;48.714;8.994;2022-11-13T05:35:31;4.13;;;2.00;;
6661;SDS011;3367;48.714;8.994;2022-11-13T05:37:58;3.17;;;1.63;;
6661;SDS011;3367;48.714;8.994;2022-11-13T05:40:25;2.67;;;1.53;;
6661;SDS011;3367;48.714;8.994;2022-11-13T05:42:52;2.73;;;1.30;;
6661;SDS011;3367;48.714;8.994;2022-11-13T05:45:20;2.00;;;1.87;;
6661;SDS011;3367;48.714;8.994;2022-11-13T05:47:47;1.67;;;1.57;;
6661;SDS011;3367;48.714;8.994;2022-11-13T05:50:14;1.90;;;1.50;;
6661;SDS011;3367;48.714;8.994;2022-11-13T05:52:42;1.80;;;1.23;;
6661;SDS011;3367;48.714;8.994;2022-11-13T05:55:10;1.30;;;1.20;;
6661;SDS011;3367;48.714;8.994;2022-11-13T05:57:37;3.37;;;2.50;;
6661;SDS011;3367;48.714;8.994;2022-11-13T06:00:04;3.47;;;1.50;;
6661;SDS011;3367;48.714;8.994;2022-11-13T06:02:33;2.03;;;1.83;;
6661;SDS011;3367;48.714;8.994;2022-11-13T06:05:00;2.70;;;2.17;;
6661;SDS011;3367;48.714;8.994;2022-11-13T06:07:36;1.80;;;1.40;;
6661;SDS011;3367;48.714;8.994;2022-11-13T06:10:04;1.53;;;1.37;;
6661;SDS011;3367;48.714;8.994;2022-11-13T06:12:31;1.80;;;1.50;;
6661;SDS011;3367;48.714;8.994;2022-11-13T06:14:58;1.63;;;1.07;;
6661;SDS011;3367;48.714;8.994;2022-11-13T06:17:25;5.87;;;2.73;;
6661;SDS011;3367;48.714;8.994;2022-11-13T06:19:51;3.43;;;1.10;;
6661;SDS011;3367;48.714;8.994;2022-11-13T06:22:18;3.50;;;2.50;;
6661;SDS011;3367;48.714;8.994;2022-11-13T06:24:45;6.17;;;2.87;;
6661;SDS011;3367;48.714;8.994;2022-11-13T06:27:13;2.20;;;2.00;;
6661;SDS011;3367;48.714;8.994;2022-11-13T06:29:40;1.97;;;1.83;;
6661;SDS011;3367;48.714;8.994;2022-11-13T06:32:06;4.40;;;2.83;;
6661;SDS011;3367;48.714;8.994;2022-11-13T06:34:33;2.33;;;1.70;;
6661;SDS011;3367;48.714;8.994;2022-11-13T06:37:00;2.57;;;1.97;;
6661;SDS011;3367;48.714;8.994;2022-11-13T06:39:26;1.87;;;1.63;;
6661;SDS011;3367;48.714;8.994;2022-11-13T06:41:53;1.70;;;1.30;;
6661;SDS011;3367;48.714;8.994;2022-11-13T06:44:21;1.80;;;1.70;;
6661;SDS011;3367;48.714;8.994;2022-11-13T06:46:48;3.07;;;1.70;;
6661;SDS011;3367;48.714;8.994;2022-11-13T06:49:15;3.50;;;2.37;;
6661;SDS011;3367;48.714;8.994;2022-11-13T06:51:41;4.17;;;1.77;;
6661;SDS011;3367;48.714;8.994;2022-11-13T06:54:08;4.87;;;2.63;;
6661;SDS011;3367;48.714;8.994;2022-11-13T06:56:35;3.40;;;1.37;;
6661;SDS011;3367;48.714;8.994;2022-11-13T06:59:01;7.13;;;2.37;;
6661;SDS011;3367;48.714;8.994;2022-11-13T07:01:29;5.13;;;1.57;;
6661;SDS011;3367;48.714;8.994;2022-11-13T07:03:56;2.57;;;1.50;;
6661;SDS011;3367;48.714;8.994;2022-11-13T07:06:23;4.17;;;2.10;;
6661;SDS011;3367;48.714;8.994;2022-11-13T07:08:50;6.10;;;1.83;;
6661;SDS011;3367;48.714;8.994;2022-11-13T07:11:17;5.90;;;2.20;;
6661;SDS011;3367;48.714;8.994;2022-11-13T07:13:46;3.70;;;2.13;;
6661;SDS011;3367;48.714;8.994;2022-11-13T07:16:13;3.27;;;1.90;;
6661;SDS011;3367;48.714;8.994;2022-11-13T07:18:42;4.40;;;2.33;;
6661;SDS011;3367;48.714;8.994;2022-11-13T07:21:10;6.43;;;2.40;;
6661;SDS011;3367;48.714;8.994;2022-11-13T07:23:37;4.10;;;2.50;;
6661;SDS011;3367;48.714;8.994;2022-11-13T07:26:07;1.30;;;1.20;;
6661;SDS011;3367;48.714;8.994;2022-11-13T07:28:34;8.33;;;3.03;;
6661;SDS011;3367;48.714;8.994;2022-11-13T07:31:01;5.40;;;2.60;;
6661;SDS011;3367;48.714;8.994;2022-11-13T07:33:27;3.20;;;2.00;;
6661;SDS011;3367;48.714;8.994;2022-11-13T07:35:56;5.13;;;2.40;;
6661;SDS011;3367;48.714;8.994;2022-11-13T07:38:23;4.37;;;4.00;;
6661;SDS011;3367;48.714;8.994;2022-11-13T07:40:49;5.20;;;3.17;;
6661;SDS011;3367;48.714;8.994;2022-11-13T07:43:16;6.87;;;2.83;;
6661;SDS011;3367;48.714;8.994;2022-11-13T07:45:43;2.50;;;2.27;;
6661;SDS011;3367;48.714;8.994;2022-11-13T07:48:10;7.63;;;2.50;;
6661;SDS011;3367;48.714;8.994;2022-11-13T07:50:37;4.07;;;1.87;;
6661;SDS011;3367;48.714;8.994;2022-11-13T07:53:06;2.50;;;1.63;;
6661;SDS011;3367;48.714;8.994;2022-11-13T07:55:33;3.20;;;1.90;;
6661;SDS011;3367;48.714;8.994;2022-11-13T07:58:01;6.10;;;2.30;;
6661;SDS011;3367;48.714;8.994;2022-11-13T08:00:29;4.20;;;2.70;;
6661;SDS011;3367;48.714;8.994;2022-11-13T08:03:03;3.03;;;2.07;;
6661;SDS011;3367;48.714;8.994;2022-11-13T08:05:31;4.80;;;2.47;;
6661;SDS011;3367;48.714;8.994;2022-11-13T08:07:57;1.80;;;1.27;;
6661;SDS011;3367;48.714;8.994;2022-11-13T08:10:26;3.50;;;2.57;;
6661;SDS011;3367;48.714;8.994;2022-11-13T08:12:56;7.40;;;2.43;;
6661;SDS011;3367;48.714;8.994;2022-11-13T08:15:25;2.40;;;2.03;;
6661;SDS011;3367;48.714;8.994;2022-11-13T08:17:52;4.37;;;3.60;;
6661;SDS011;3367;48.714;8.994;2022-11-13T08:20:19;9.90;;;4.33;;
6661;SDS011;3367;48.714;8.994;2022-11-13T08:22:46;8.67;;;2.70;;
6661;SDS011;3367;48.714;8.994;2022-11-13T08:25:13;18.93;;;5.67;;
6661;SDS011;3367;48.714;8.994;2022-11-13T08:27:41;12.23;;;4.80;;
6661;SDS011;3367;48.714;8.994;2022-11-13T08:30:08;6.37;;;2.60;;
6661;SDS011;3367;48.714;8.994;2022-11-13T08:32:35;5.43;;;2.70;;
6661;SDS011;3367;48.714;8.994;2022-11-13T08:35:02;4.80;;;2.50;;
6661;SDS011;3367;48.714;8.994;2022-11-13T08:37:29;6.30;;;3.30;;
6661;SDS011;3367;48.714;8.994;2022-11-13T08:39:57;4.43;;;2.77;;
6661;SDS011;3367;48.714;8.994;2022-11-13T08:42:23;4.40;;;2.43;;
6661;SDS011;3367;48.714;8.994;2022-11-13T08:44:52;3.70;;;2.33;;
6661;SDS011;3367;48.714;8.994;2022-11-13T08:47:18;10.33;;;2.97;;
6661;SDS011;3367;48.714;8.994;2022-11-13T08:49:45;6.20;;;3.27;;
6661;SDS011;3367;48.714;8.994;2022-11-13T08:52:12;9.93;;;4.63;;
6661;SDS011;3367;48.714;8.994;2022-11-13T08:54:40;4.37;;;4.03;;
6661;SDS011;3367;48.714;8.994;2022-11-13T08:57:06;6.40;;;3.43;;
6661;SDS011;3367;48.714;8.994;2022-11-13T08:59:33;4.87;;;3.23;;
6661;SDS011;3367;48.714;8.994;2022-11-13T09:02:01;6.40;;;4.07;;
6661;SDS011;3367;48.714;8.994;2022-11-13T09:04:28;12.20;;;4.70;;
6661;SDS011;3367;48.714;8.994;2022-11-13T09:06:55;18.53;;;6.00;;
6661;SDS011;3367;48.714;8.994;2022-11-13T09:09:22;19.33;;;4.57;;
6661;SDS011;3367;48.714;8.994;2022-11-13T09:11:49;8.73;;;3.00;;
6661;SDS011;3367;48.714;8.994;2022-11-13T09:14:15;8.30;;;3.20;;
6661;SDS011;3367;48.714;8.994;2022-11-13T09:16:42;6.93;;;4.00;;
6661;SDS011;3367;48.714;8.994;2022-11-13T09:19:10;7.93;;;2.93;;
6661;SDS011;3367;48.714;8.994;2022-11-13T09:21:37;6.47;;;3.50;;
6661;SDS011;3367;48.714;8.994;2022-11-13T09:24:04;5.70;;;3.67;;
6661;SDS011;3367;48.714;8.994;2022-11-13T09:26:32;4.47;;;2.90;;
6661;SDS011;3367;48.714;8.994;2022-11-13T09:28:59;5.13;;;3.03;;
6661;SDS011;3367;48.714;8.994;2022-11-13T09:31:26;6.90;;;3.27;;
6661;SDS011;3367;48.714;8.994;2022-11-13T09:33:53;7.67;;;3.37;;
6661;SDS011;3367;48.714;8.994;2022-11-13T09:36:21;3.47;;;2.50;;
6661;SDS011;3367;48.714;8.994;2022-11-13T09:38:47;5.17;;;2.60;;
6661;SDS011;3367;48.714;8.994;2022-11-13T09:41:16;8.50;;;4.23;;
6661;SDS011;3367;48.714;8.994;2022-11-13T09:43:45;5.90;;;3.30;;
6661;SDS011;3367;48.714;8.994;2022-11-13T09:46:16;5.60;;;3.87;;
6661;SDS011;3367;48.714;8.994;2022-11-13T09:48:46;2.23;;;2.13;;
6661;SDS011;3367;48.714;8.994;2022-11-13T09:51:17;4.80;;;3.20;;
6661;SDS011;3367;48.714;8.994;2022-11-13T09:53:47;6.47;;;4.30;;
6661;SDS011;3367;48.714;8.994;2022-11-13T09:56:20;3.57;;;2.90;;
6661;SDS011;3367;48.714;8.994;2022-11-13T09:58:53;3.93;;;2.50;;
6661;SDS011;3367;48.714;8.994;2022-11-13T10:01:29;2.60;;;2.13;;
6661;SDS011;3367;48.714;8.994;2022-11-13T10:03:59;6.93;;;2.23;;
6661;SDS011;3367;48.714;8.994;2022-11-13T10:06:37;3.43;;;2.37;;
6661;SDS011;3367;48.714;8.994;2022-11-13T10:09:17;3.67;;;2.43;;
6661;SDS011;3367;48.714;8.994;2022-11-13T10:11:50;2.80;;;2.47;;
6661;SDS011;3367;48.714;8.994;2022-11-13T10:14:21;6.80;;;2.80;;
6661;SDS011;3367;48.714;8.994;2022-11-13T10:16:52;1.30;;;1.17;;
6661;SDS011;3367;48.714;8.994;2022-11-13T10:19:22;2.40;;;1.77;;
6661;SDS011;3367;48.714;8.994;2022-11-13T10:21:55;2.20;;;1.30;;
6661;SDS011;3367;48.714;8.994;2022-11-13T10:24:28;6.83;;;1.90;;
6661;SDS011;3367;48.714;8.994;2022-11-13T10:27:04;1.67;;;1.57;;
6661;SDS011;3367;48.714;8.994;2022-11-13T10:29:34;1.40;;;1.20;;
6661;SDS011;3367;48.714;8.994;2022-11-13T10:32:11;1.40;;;1.30;;
6661;SDS011;3367;48.714;8.994;2022-11-13T10:34:41;2.70;;;1.60;;
6661;SDS011;3367;48.714;8.994;2022-11-13T10:37:23;2.80;;;1.67;;
6661;SDS011;3367;48.714;8.994;2022-11-13T10:40:01;4.83;;;1.50;;
6661;SDS011;3367;48.714;8.994;2022-11-13T10:42:28;1.80;;;1.13;;
6661;SDS011;3367;48.714;8.994;2022-11-13T10:45:02;2.20;;;1.20;;
6661;SDS011;3367;48.714;8.994;2022-11-13T10:47:30;4.13;;;1.87;;
6661;SDS011;3367;48.714;8.994;2022-11-13T10:50:07;1.43;;;1.20;;
6661;SDS011;3367;48.714;8.994;2022-11-13T10:52:42;2.20;;;1.20;;
6661;SDS011;3367;48.714;8.994;2022-11-13T10:55:15;3.97;;;1.20;;
6661;SDS011;3367;48.714;8.994;2022-11-13T10:57:53;2.50;;;1.27;;
6661;SDS011;3367;48.714;8.994;2022-11-13T11:00:22;1.50;;;1.23;;
6661;SDS011;3367;48.714;8.994;2022-11-13T11:02:51;2.13;;;1.67;;
6661;SDS011;3367;48.714;8.994;2022-11-13T11:05:19;1.53;;;1.23;;
6661;SDS011;3367;48.714;8.994;2022-11-13T11:07:47;2.03;;;1.37;;
6661;SDS011;3367;48.714;8.994;2022-11-13T11:10:30;1.93;;;1.50;;
6661;SDS011;3367;48.714;8.994;2022-11-13T11:13:00;4.70;;;1.77;;
6661;SDS011;3367;48.714;8.994;2022-11-13T11:15:34;2.03;;;1.10;;
6661;SDS011;3367;48.714;8.994;2022-11-13T11:18:05;3.83;;;1.60;;
6661;SDS011;3367;48.714;8.994;2022-11-13T11:20:42;1.77;;;1.00;;
6661;SDS011;3367;48.714;8.994;2022-11-13T11:23:15;1.40;;;1.27;;
6661;SDS011;3367;48.714;8.994;2022-11-13T11:25:49;1.73;;;1.03;;
6661;SDS011;3367;48.714;8.994;2022-11-13T11:28:24;2.60;;;1.50;;
6661;SDS011;3367;48.714;8.994;2022-11-13T11:31:00;3.03;;;1.70;;
6661;SDS011;3367;48.714;8.994;2022-11-13T11:33:34;4.57;;;2.90;;
6661;SDS011;3367;48.714;8.994;2022-11-13T11:36:06;2.53;;;1.87;;
6661;SDS011;3367;48.714;8.994;2022-11-13T11:38:41;1.10;;;1.00;;
6661;SDS011;3367;48.714;8.994;2022-11-13T11:41:17;1.27;;;0.70;;
6661;SDS011;3367;48.714;8.994;2022-11-13T11:43:46;1.93;;;1.83;;
6661;SDS011;3367;48.714;8.994;2022-11-13T11:46:18;3.17;;;1.63;;
6661;SDS011;3367;48.714;8.994;2022-11-13T11:48:48;2.30;;;1.63;;
6661;SDS011;3367;48.714;8.994;2022-11-13T11:51:17;1.37;;;1.10;;
6661;SDS011;3367;48.714;8.994;2022-11-13T11:53:53;1.40;;;1.30;;
6661;SDS011;3367;48.714;8.994;2022-11-13T11:56:32;2.77;;;2.20;;
6661;SDS011;3367;48.714;8.994;2022-11-13T11:59:07;2.23;;;1.20;;
6661;SDS011;3367;48.714;8.994;2022-11-13T12:01:47;2.63;;;1.67;;
6661;SDS011;3367;48.714;8.994;2022-11-13T12:04:29;2.83;;;1.30;;
6661;SDS011;3367;48.714;8.994;2022-11-13T12:07:06;1.40;;;1.30;;
6661;SDS011;3367;48.714;8.994;2022-11-13T12:09:41;1.17;;;1.03;;
6661;SDS011;3367;48.714;8.994;2022-11-13T12:12:17;2.17;;;1.13;;
6661;SDS011;3367;48.714;8.994;2022-11-13T12:14:52;1.73;;;1.17;;
6661;SDS011;3367;48.714;8.994;2022-11-13T12:17:31;4.73;;;1.57;;
6661;SDS011;3367;48.714;8.994;2022-11-13T12:20:15;7.23;;;1.80;;
6661;SDS011;3367;48.714;8.994;2022-11-13T12:22:51;1.60;;;1.20;;
6661;SDS011;3367;48.714;8.994;2022-11-13T12:25:26;3.50;;;1.70;;
6661;SDS011;3367;48.714;8.994;2022-11-13T12:28:04;2.20;;;1.67;;
6661;SDS011;3367;48.714;8.994;2022-11-13T12:30:39;2.20;;;1.30;;
6661;SDS011;3367;48.714;8.994;2022-11-13T12:33:16;2.63;;;1.77;;
6661;SDS011;3367;48.714;8.994;2022-11-13T12:35:53;2.73;;;1.60;;
6661;SDS011;3367;48.714;8.994;2022-11-13T12:38:22;2.30;;;1.73;;
6661;SDS011;3367;48.714;8.994;2022-11-13T12:40:58;3.47;;;1.70;;
6661;SDS011;3367;48.714;8.994;2022-11-13T12:43:49;2.20;;;1.00;;
6661;SDS011;3367;48.714;8.994;2022-11-13T12:46:32;1.23;;;1.13;;
6661;SDS011;3367;48.714;8.994;2022-11-13T12:49:00;1.23;;;1.00;;
6661;SDS011;3367;48.714;8.994;2022-11-13T12:51:36;1.70;;;1.33;;
6661;SDS011;3367;48.714;8.994;2022-11-13T12:54:04;0.80;;;0.80;;
6661;SDS011;3367;48.714;8.994;2022-11-13T12:56:31;1.60;;;1.10;;
6661;SDS011;3367;48.714;8.994;2022-11-13T12:59:12;1.00;;;0.90;;
6661;SDS011;3367;48.714;8.994;2022-11-13T13:01:55;2.50;;;1.27;;
6661;SDS011;3367;48.714;8.994;2022-11-13T13:04:33;2.00;;;1.73;;
6661;SDS011;3367;48.714;8.994;2022-11-13T13:07:12;2.93;;;1.27;;
6661;SDS011;3367;48.714;8.994;2022-11-13T13:09:49;3.53;;;1.23;;
6661;SDS011;3367;48.714;8.994;2022-11-13T13:12:27;2.43;;;1.30;;
6661;SDS011;3367;48.714;8.994;2022-11-13T13:15:14;1.07;;;0.70;;
6661;SDS011;3367;48.714;8.994;2022-11-13T13:18:00;1.67;;;1.00;;
6661;SDS011;3367;48.714;8.994;2022-11-13T13:20:33;5.83;;;1.87;;
6661;SDS011;3367;48.714;8.994;2022-11-13T13:23:01;2.10;;;1.90;;
6661;SDS011;3367;48.714;8.994;2022-11-13T13:25:29;2.43;;;1.00;;
6661;SDS011;3367;48.714;8.994;2022-11-13T13:27:57;2.80;;;2.60;;
6661;SDS011;3367;48.714;8.994;2022-11-13T13:30:27;1.93;;;1.17;;
6661;SDS011;3367;48.714;8.994;2022-11-13T13:33:02;1.97;;;1.50;;
6661;SDS011;3367;48.714;8.994;2022-11-13T13:35:40;10.90;;;1.30;;
6661;SDS011;3367;48.714;8.994;2022-11-13T13:38:13;1.70;;;0.90;;
6661;SDS011;3367;48.714;8.994;2022-11-13T13:40:47;4.40;;;3.10;;
6661;SDS011;3367;48.714;8.994;2022-11-13T13:43:32;1.10;;;1.00;;
6661;SDS011;3367;48.714;8.994;2022-11-13T13:46:12;17.10;;;5.97;;
6661;SDS011;3367;48.714;8.994;2022-11-13T13:48:41;12.10;;;7.43;;
6661;SDS011;3367;48.714;8.994;2022-11-13T13:51:13;2.03;;;1.90;;
6661;SDS011;3367;48.714;8.994;2022-11-13T13:53:42;4.03;;;3.83;;
6661;SDS011;3367;48.714;8.994;2022-11-13T13:56:10;1.67;;;1.43;;
6661;SDS011;3367;48.714;8.994;2022-11-13T13:58:38;2.80;;;1.50;;
6661;SDS011;3367;48.714;8.994;2022-11-13T14:01:10;0.90;;;0.80;;
6661;SDS011;3367;48.714;8.994;2022-11-13T14:03:40;1.20;;;1.00;;
6661;SDS011;3367;48.714;8.994;2022-11-13T14:06:07;1.73;;;1.40;;
6661;SDS011;3367;48.714;8.994;2022-11-13T14:08:35;3.10;;;1.10;;
6661;SDS011;3367;48.714;8.994;2022-11-13T14:11:02;1.50;;;1.10;;
6661;SDS011;3367;48.714;8.994;2022-11-13T14:13:40;2.20;;;1.10;;
6661;SDS011;3367;48.714;8.994;2022-11-13T14:16:07;2.63;;;1.47;;
6661;SDS011;3367;48.714;8.994;2022-11-13T14:18:35;3.00;;;1.27;;
6661;SDS011;3367;48.714;8.994;2022-11-13T14:21:03;1.70;;;1.50;;
6661;SDS011;3367;48.714;8.994;2022-11-13T14:23:36;1.57;;;1.27;;
6661;SDS011;3367;48.714;8.994;2022-11-13T14:26:07;1.60;;;1.27;;
6661;SDS011;3367;48.714;8.994;2022-11-13T14:28:41;3.50;;;1.40;;
6661;SDS011;3367;48.714;8.994;2022-11-13T14:31:11;1.50;;;1.17;;
6661;SDS011;3367;48.714;8.994;2022-11-13T14:33:41;4.33;;;1.57;;
6661;SDS011;3367;48.714;8.994;2022-11-13T14:36:09;2.17;;;1.40;;
6661;SDS011;3367;48.714;8.994;2022-11-13T14:38:40;1.63;;;1.53;;
6661;SDS011;3367;48.714;8.994;2022-11-13T14:41:18;3.00;;;2.80;;
6661;SDS011;3367;48.714;8.994;2022-11-13T14:43:47;1.80;;;1.43;;
6661;SDS011;3367;48.714;8.994;2022-11-13T14:46:26;3.00;;;1.70;;
6661;SDS011;3367;48.714;8.994;2022-11-13T14:48:56;2.80;;;2.10;;
6661;SDS011;3367;48.714;8.994;2022-11-13T14:51:24;1.90;;;1.80;;
6661;SDS011;3367;48.714;8.994;2022-11-13T14:53:55;1.63;;;1.47;;
6661;SDS011;3367;48.714;8.994;2022-11-13T14:56:30;1.80;;;1.33;;
6661;SDS011;3367;48.714;8.994;2022-11-13T14:59:05;1.80;;;1.20;;
6661;SDS011;3367;48.714;8.994;2022-11-13T15:01:33;1.60;;;1.07;;
6661;SDS011;3367;48.714;8.994;2022-11-13T15:04:01;1.90;;;1.30;;
6661;SDS011;3367;48.714;8.994;2022-11-13T15:06:32;2.00;;;1.50;;
6661;SDS011;3367;48.714;8.994;2022-11-13T15:09:01;2.77;;;1.50;;
6661;SDS011;3367;48.714;8.994;2022-11-13T15:11:29;1.83;;;1.60;;
6661;SDS011;3367;48.714;8.994;2022-11-13T15:13:56;1.33;;;1.23;;
6661;SDS011;3367;48.714;8.994;2022-11-13T15:16:23;3.47;;;3.00;;
6661;SDS011;3367;48.714;8.994;2022-11-13T15:18:53;3.20;;;2.40;;
6661;SDS011;3367;48.714;8.994;2022-11-13T15:21:24;3.73;;;2.07;;
6661;SDS011;3367;48.714;8.994;2022-11-13T15:23:51;1.97;;;1.50;;
6661;SDS011;3367;48.714;8.994;2022-11-13T15:26:18;1.60;;;1.50;;
6661;SDS011;3367;48.714;8.994;2022-11-13T15:28:45;2.60;;;1.37;;